Time;durP1;ratioP1;P1;durP2;ratioP2;P2;SDS_P1;SDS_P2;PMS_P1;PMS_P2;Temp;Humidity;BMP_temperature;BMP_pressure;BME280_temperature;BME280_humidity;BME280_pressure;Samples;Min_cycle;Max_cycle;Signal;HPM_P1;HPM_P2
2023/03/26 00:01:20;;;;;;;7.60;2.27;;;;;;;8.10;89.95;100118.06;6220932;28;20236;-75
2023/03/26 00:04:41;;;;;;;3.17;1.83;;;;;;;8.11;89.41;100130.22;6222031;28;20240;-74
2023/03/26 00:08:02;;;;;;;2.90;1.43;;;;;;;7.96;89.86;100124.03;6218391;28;20252;-73
2023/03/26 00:11:26;;;;;;;10.97;2.60;;;;;;;8.02;88.84;100131.25;6211949;28;20228;-73
2023/03/26 00:14:47;;;;;;;8.70;2.93;;;;;;;8.10;88.94;100154.88;6215007;28;20229;-75
2023/03/26 00:18:09;;;;;;;3.00;2.57;;;;;;;8.06;89.32;100153.56;6216370;28;20228;-72
2023/03/26 00:21:31;;;;;;;3.27;1.73;;;;;;;8.02;89.39;100158.34;6212926;28;20315;-73
2023/03/26 00:24:52;;;;;;;7.03;2.93;;;;;;;8.01;89.84;100161.13;6218260;28;20303;-74
2023/03/26 00:28:15;;;;;;;6.23;2.03;;;;;;;8.00;90.00;100170.81;6217927;28;20248;-73
2023/03/26 00:31:38;;;;;;;4.10;1.80;;;;;;;7.91;90.77;100169.19;6201845;28;20260;-74
2023/03/26 00:35:01;;;;;;;5.30;2.93;;;;;;;7.99;89.86;100171.81;6205103;28;20340;-73
2023/03/26 00:38:23;;;;;;;6.50;2.00;;;;;;;7.94;90.49;100178.56;6219358;28;20228;-74
2023/03/26 00:41:43;;;;;;;2.77;1.40;;;;;;;7.97;89.46;100162.44;6208516;28;20240;-73
2023/03/26 00:45:06;;;;;;;5.17;1.33;;;;;;;7.85;90.26;100173.34;6219363;28;20224;-74
2023/03/26 00:48:28;;;;;;;1.47;1.37;;;;;;;7.91;89.48;100179.69;6220172;28;20316;-74
2023/03/26 00:51:50;;;;;;;5.03;2.13;;;;;;;7.81;90.20;100179.09;6219915;28;20240;-74
2023/03/26 00:55:12;;;;;;;2.10;1.90;;;;;;;7.89;90.04;100187.78;6221255;28;20232;-74
2023/03/26 00:58:34;;;;;;;1.90;1.80;;;;;;;7.80;91.15;100182.69;6222603;28;20213;-73
2023/03/26 01:01:57;;;;;;;7.70;2.10;;;;;;;7.91;90.70;100190.22;6196933;28;20233;-72
2023/03/26 01:05:51;;;;;;;4.53;1.90;;;;;;;7.94;90.13;100195.13;6220192;28;20545;-73
2023/03/26 01:09:17;;;;;;;2.80;1.73;;;;;;;7.90;89.20;100196.47;6210360;28;22204;-74
2023/03/26 01:12:38;;;;;;;1.70;1.33;;;;;;;7.89;90.41;100203.53;6210568;28;20220;-73
2023/03/26 01:16:01;;;;;;;4.13;3.90;;;;;;;7.86;90.88;100201.25;6228702;28;20232;-73
2023/03/26 01:19:29;;;;;;;2.40;1.03;;;;;;;7.65;90.21;100203.56;6216454;28;20232;-74
2023/03/26 01:22:55;;;;;;;1.20;1.10;;;;;;;7.72;89.72;100224.72;6208517;28;20228;-74
2023/03/26 01:26:31;;;;;;;3.87;1.57;;;;;;;7.79;88.49;100247.56;6222553;28;20236;-74
2023/03/26 01:29:55;;;;;;;1.63;1.57;;;;;;;7.71;87.81;100229.16;6223165;28;20253;-73
2023/03/26 01:33:28;;;;;;;2.57;1.33;;;;;;;7.70;88.43;100234.56;6217500;28;20610;-74
2023/03/26 01:36:56;;;;;;;3.03;1.10;;;;;;;7.64;87.44;100232.63;6202553;28;20228;-75
2023/03/26 01:40:24;;;;;;;2.73;1.00;;;;;;;7.61;87.29;100225.91;6222732;28;20740;-75
2023/03/26 01:43:54;;;;;;;4.87;1.30;;;;;;;7.55;87.62;100231.78;6192363;28;20321;-74
2023/03/26 01:47:17;;;;;;;2.27;1.30;;;;;;;7.51;87.48;100231.28;6210699;28;20232;-73
2023/03/26 01:50:38;;;;;;;2.73;2.23;;;;;;;7.55;88.02;100244.94;6210252;28;20606;-73
2023/03/26 01:54:01;;;;;;;7.47;2.63;;;;;;;7.51;88.77;100243.59;6211529;28;20228;-72
2023/03/26 01:57:34;;;;;;;5.03;1.73;;;;;;;7.54;88.28;100235.41;6182480;28;20563;-74
2023/03/26 02:01:06;;;;;;;3.70;2.60;;;;;;;7.56;87.74;100238.69;6215306;28;20232;-73
2023/03/26 02:04:35;;;;;;;2.60;1.33;;;;;;;7.52;87.77;100240.81;6212280;28;20233;-74
2023/03/26 02:08:03;;;;;;;2.73;2.50;;;;;;;7.39;88.22;100240.50;6212055;28;20228;-74
2023/03/26 02:11:24;;;;;;;4.20;1.73;;;;;;;7.45;88.29;100249.53;6209195;28;20617;-75
2023/03/26 02:14:45;;;;;;;6.07;2.57;;;;;;;7.50;88.46;100244.59;6223485;28;20232;-72
2023/03/26 02:18:09;;;;;;;6.47;1.87;;;;;;;7.49;87.02;100242.94;6208454;28;20224;-75
2023/03/26 02:21:32;;;;;;;6.83;1.60;;;;;;;7.35;87.58;100246.22;6207066;28;20256;-74
2023/03/26 02:24:53;;;;;;;3.43;1.93;;;;;;;7.35;87.38;100233.91;6204677;28;20240;-72
2023/03/26 02:28:15;;;;;;;4.50;2.27;;;;;;;7.49;86.93;100243.75;6192208;28;20236;-74
2023/03/26 02:31:37;;;;;;;3.37;1.97;;;;;;;7.41;86.41;100240.34;6182077;28;20229;-73
2023/03/26 02:34:59;;;;;;;4.90;2.67;;;;;;;7.42;85.45;100244.59;6222023;28;20323;-74
2023/03/26 02:38:24;;;;;;;7.83;2.60;;;;;;;7.43;85.27;100243.63;6195397;28;20268;-72
2023/03/26 02:41:45;;;;;;;2.57;1.20;;;;;;;7.38;86.63;100248.53;6200798;28;20249;-73
2023/03/26 02:45:07;;;;;;;3.17;2.43;;;;;;;7.32;84.84;100250.00;6208823;28;20678;-73
2023/03/26 02:48:47;;;;;;;1.80;1.70;;;;;;;7.26;85.21;100252.44;6193576;28;20614;-74
2023/03/26 02:52:17;;;;;;;2.70;1.30;;;;;;;7.15;85.73;100249.16;6191584;28;20252;-73
2023/03/26 02:55:39;;;;;;;5.20;1.67;;;;;;;7.28;84.58;100245.22;6209563;28;20993;-73
2023/03/26 02:59:00;;;;;;;8.63;1.50;;;;;;;7.09;85.00;100256.84;6208838;28;20236;-73
2023/03/26 03:02:23;;;;;;;4.47;1.37;;;;;;;7.16;85.09;100255.22;6209129;28;20249;-73
2023/03/26 03:05:44;;;;;;;2.63;1.53;;;;;;;7.10;85.08;100253.22;6208194;28;20232;-73
2023/03/26 03:09:19;;;;;;;1.50;1.40;;;;;;;7.14;84.73;100255.38;6213316;28;20224;-73
2023/03/26 03:12:59;;;;;;;1.37;1.10;;;;;;;7.02;84.58;100247.94;6212944;28;20228;-72
2023/03/26 03:16:20;;;;;;;3.67;1.10;;;;;;;7.06;83.13;100257.97;6206733;28;20229;-72
2023/03/26 03:19:42;;;;;;;2.93;1.90;;;;;;;7.03;83.96;100266.16;6226289;28;21266;-74
2023/03/26 03:23:03;;;;;;;2.83;1.33;;;;;;;7.00;83.94;100261.25;6201645;28;20236;-74
2023/03/26 03:26:28;;;;;;;5.10;1.30;;;;;;;6.95;83.57;100247.78;6207500;28;20724;-74
2023/03/26 03:29:52;;;;;;;2.47;0.97;;;;;;;6.91;83.14;100251.72;6231370;28;20228;-73
2023/03/26 03:33:30;;;;;;;5.60;1.00;;;;;;;6.86;84.03;100252.19;6203384;28;20233;-73
2023/03/26 03:36:51;;;;;;;3.97;1.20;;;;;;;6.97;83.85;100245.81;6199215;28;20315;-73
2023/03/26 03:40:26;;;;;;;2.70;1.23;;;;;;;6.99;84.18;100245.66;6181906;28;20621;-73
2023/03/26 03:43:48;;;;;;;3.83;1.73;;;;;;;7.06;84.02;100244.84;6192246;28;20602;-73
2023/03/26 03:47:14;;;;;;;4.53;2.10;;;;;;;6.87;84.34;100255.63;6194719;28;20260;-71
2023/03/26 03:50:36;;;;;;;1.03;0.97;;;;;;;6.94;84.84;100255.81;6205633;28;20236;-73
2023/03/26 03:54:13;;;;;;;6.70;1.83;;;;;;;6.94;84.46;100258.44;6196611;28;20236;-72
2023/03/26 03:57:37;;;;;;;3.17;1.53;;;;;;;6.65;85.28;100253.56;6207670;28;20228;-73
2023/03/26 04:01:04;;;;;;;2.67;2.27;;;;;;;6.74;84.73;100252.63;6202782;28;20233;-73
2023/03/26 04:04:45;;;;;;;7.50;1.40;;;;;;;6.96;85.28;100259.09;6218449;28;20224;-73
2023/03/26 04:08:08;;;;;;;3.43;1.50;;;;;;;6.82;84.24;100257.91;6188455;28;20229;-73
2023/03/26 04:11:38;;;;;;;3.37;1.50;;;;;;;6.79;84.63;100256.41;6202406;28;21734;-73
2023/03/26 04:15:27;;;;;;;3.27;2.70;;;;;;;6.92;83.60;100252.53;6205222;28;20497;-74
2023/03/26 04:18:50;;;;;;;6.10;1.17;;;;;;;6.99;83.47;100254.38;6194462;28;20248;-73
2023/03/26 04:22:11;;;;;;;5.63;1.77;;;;;;;6.96;82.37;100249.44;6188299;28;20260;-73
2023/03/26 04:25:47;;;;;;;7.93;2.50;;;;;;;6.93;81.77;100248.91;6203983;28;20328;-72
2023/03/26 04:29:16;;;;;;;6.10;2.50;;;;;;;6.86;81.61;100246.09;6199213;28;20228;-73
2023/03/26 04:32:39;;;;;;;2.53;1.73;;;;;;;6.59;81.04;100243.69;6182033;28;20232;-72
2023/03/26 04:36:02;;;;;;;1.70;1.40;;;;;;;6.65;81.10;100243.09;6208851;28;20224;-71
2023/03/26 04:39:27;;;;;;;2.80;1.20;;;;;;;6.58;81.43;100236.81;6179064;28;20221;-73
2023/03/26 04:43:25;;;;;;;1.60;1.37;;;;;;;6.64;80.85;100239.63;6193184;28;20269;-73
2023/03/26 04:47:04;;;;;;;6.23;2.73;;;;;;;6.65;81.70;100241.28;6214936;28;20237;-72
2023/03/26 04:50:30;;;;;;;5.10;1.33;;;;;;;6.73;79.60;100235.25;6229380;28;20237;-73
2023/03/26 04:53:56;;;;;;;4.57;3.13;;;;;;;6.75;79.52;100243.78;6222237;28;20247;-73
2023/03/26 04:57:45;;;;;;;5.13;2.37;;;;;;;6.64;79.80;100242.25;6189525;28;20242;-73
2023/03/26 05:01:16;;;;;;;4.07;1.43;;;;;;;6.76;79.37;100235.75;6208021;28;20236;-72
2023/03/26 05:04:39;;;;;;;2.57;1.30;;;;;;;6.68;79.69;100232.28;6216369;28;20232;-71
2023/03/26 05:08:01;;;;;;;5.33;1.50;;;;;;;6.60;79.26;100237.47;6199534;28;20599;-71
2023/03/26 05:11:23;;;;;;;4.43;1.90;;;;;;;6.50;79.63;100235.00;6210119;28;20272;-72
2023/03/26 05:14:45;;;;;;;5.57;1.87;;;;;;;6.39;80.07;100243.94;6214845;28;20264;-72
2023/03/26 05:18:11;;;;;;;3.27;1.00;;;;;;;6.28;80.61;100248.66;6187375;28;20603;-72
2023/03/26 05:21:35;;;;;;;3.80;2.00;;;;;;;6.33;80.51;100241.94;6199704;28;20260;-73
2023/03/26 05:24:56;;;;;;;1.47;1.37;;;;;;;6.28;81.14;100246.84;6213157;28;20260;-73
2023/03/26 05:28:23;;;;;;;3.13;1.40;;;;;;;6.31;81.09;100250.97;6201559;28;20328;-72
2023/03/26 05:31:50;;;;;;;2.87;2.03;;;;;;;6.46;81.74;100252.00;6198475;28;20227;-74
2023/03/26 05:35:11;;;;;;;1.77;1.40;;;;;;;6.38;81.14;100250.16;6210623;28;20241;-73
2023/03/26 05:38:33;;;;;;;11.63;1.30;;;;;;;6.39;81.00;100251.81;6217391;28;20217;-72
2023/03/26 05:41:55;;;;;;;1.90;1.60;;;;;;;6.48;80.41;100257.94;6201743;28;20240;-73
2023/03/26 05:45:23;;;;;;;7.30;1.83;;;;;;;6.45;81.19;100264.31;6212608;28;20229;-73
2023/03/26 05:48:44;;;;;;;8.77;1.23;;;;;;;6.38;83.07;100259.81;6194227;28;20233;-74
2023/03/26 05:52:05;;;;;;;1.77;1.63;;;;;;;6.44;82.07;100262.66;6189884;28;20248;-74
2023/03/26 05:55:46;;;;;;;1.60;1.10;;;;;;;6.46;80.93;100265.94;6228629;28;20236;-73
2023/03/26 05:59:45;;;;;;;1.83;1.63;;;;;;;6.46;81.05;100271.19;6222873;28;20357;-73
2023/03/26 06:03:26;;;;;;;5.70;1.63;;;;;;;6.43;81.34;100273.28;6202558;28;20240;-72
2023/03/26 06:07:03;;;;;;;1.87;0.97;;;;;;;6.32;82.81;100274.41;6203470;28;20244;-73
2023/03/26 06:10:24;;;;;;;1.73;1.63;;;;;;;6.46;82.12;100267.75;6208208;28;20292;-73
2023/03/26 06:13:46;;;;;;;3.97;1.53;;;;;;;6.34;82.40;100269.78;6188194;28;20276;-73
2023/03/26 06:17:08;;;;;;;2.97;1.30;;;;;;;6.42;81.57;100285.56;6201474;28;20515;-71
2023/03/26 06:20:51;;;;;;;4.73;1.30;;;;;;;6.71;80.50;100268.69;6218135;28;20224;-73
2023/03/26 06:24:26;;;;;;;2.33;1.50;;;;;;;6.87;79.36;100273.97;6177842;28;20237;-73
2023/03/26 06:28:00;;;;;;;5.57;1.53;;;;;;;6.90;79.16;100273.66;6182392;28;20324;-73
2023/03/26 06:31:41;;;;;;;3.17;1.43;;;;;;;6.85;79.29;100275.94;6186957;28;20348;-73
2023/03/26 06:35:10;;;;;;;5.23;2.13;;;;;;;6.85;79.36;100287.25;6208370;28;20224;-73
2023/03/26 06:38:32;;;;;;;2.87;1.63;;;;;;;6.96;78.69;100286.16;6192700;28;20634;-74
2023/03/26 06:41:56;;;;;;;8.03;1.70;;;;;;;6.95;78.21;100291.56;6208617;28;20233;-73
2023/03/26 06:45:43;;;;;;;2.10;1.33;;;;;;;6.92;78.88;100290.06;6219854;28;20296;-74
2023/03/26 06:49:22;;;;;;;4.30;2.63;;;;;;;7.18;78.73;100282.94;6211673;28;20677;-73
2023/03/26 06:53:11;;;;;;;1.57;1.30;;;;;;;7.28;76.28;100285.41;6197106;28;20606;-72
2023/03/26 06:56:48;;;;;;;1.57;1.30;;;;;;;7.31;76.05;100297.41;6208890;28;20236;-72
2023/03/26 07:00:28;;;;;;;7.20;2.20;;;;;;;7.45;74.40;100288.91;6225694;28;20228;-72
2023/03/26 07:04:08;;;;;;;3.70;1.87;;;;;;;7.59;72.56;100290.06;6211706;28;20244;-68
2023/03/26 07:07:48;;;;;;;1.30;1.00;;;;;;;7.67;67.06;100300.59;6205489;28;20629;-69
2023/03/26 07:11:30;;;;;;;4.70;1.87;;;;;;;7.75;66.39;100301.41;6209201;28;20271;-70
2023/03/26 07:15:11;;;;;;;2.43;1.30;;;;;;;7.77;67.96;100299.44;6216297;28;20236;-66
2023/03/26 07:18:59;;;;;;;3.80;1.40;;;;;;;8.15;67.53;100303.19;6153300;28;20228;-70
2023/03/26 07:22:25;;;;;;;2.27;1.40;;;;;;;8.26;70.38;100303.84;6202229;28;20327;-77
2023/03/26 07:26:17;;;;;;;2.57;1.27;;;;;;;8.72;63.83;100302.28;6226313;28;20346;-78
2023/03/26 07:29:59;;;;;;;2.83;2.13;;;;;;;7.89;56.70;100302.56;6214799;28;20278;-71
2023/03/26 07:33:44;;;;;;;2.70;2.47;;;;;;;7.96;57.42;100297.47;6197557;28;20224;-69
2023/03/26 07:37:50;;;;;;;8.23;1.80;;;;;;;7.87;56.76;100301.91;6109068;28;20229;-71
2023/03/26 07:41:43;;;;;;;5.20;1.60;;;;;;;7.77;56.48;100298.63;6202203;28;20220;-71
2023/03/26 07:45:32;;;;;;;3.13;1.53;;;;;;;7.83;57.84;100300.59;6229557;28;20498;-70
2023/03/26 07:49:21;;;;;;;5.80;2.43;;;;;;;7.94;54.77;100294.16;6194241;28;20224;-69
2023/03/26 07:53:05;;;;;;;5.80;2.33;;;;;;;7.88;55.29;100290.41;6217052;28;20642;-70
2023/03/26 07:56:41;;;;;;;4.40;1.67;;;;;;;8.13;55.53;100299.91;6223358;28;20229;-70
2023/03/26 08:00:34;;;;;;;2.30;1.70;;;;;;;8.23;56.36;100300.56;6214513;28;20241;-69
2023/03/26 08:04:28;;;;;;;7.90;4.07;;;;;;;7.99;55.55;100300.59;6191706;28;20228;-70
2023/03/26 08:08:19;;;;;;;11.33;3.20;;;;;;;7.97;56.80;100304.34;6198405;28;20228;-70
2023/03/26 08:12:00;;;;;;;3.47;2.10;;;;;;;7.97;55.42;100305.19;6186780;28;20228;-70
2023/03/26 08:15:28;;;;;;;3.37;2.60;;;;;;;8.05;54.42;100309.63;6208317;28;20267;-70
2023/03/26 08:18:54;;;;;;;5.90;2.27;;;;;;;8.22;54.42;100308.63;6195830;28;20237;-70
2023/03/26 08:22:25;;;;;;;5.23;2.13;;;;;;;8.13;53.63;100301.75;6200616;28;20237;-70
2023/03/26 08:25:56;;;;;;;8.57;3.40;;;;;;;8.02;53.61;100302.06;6211824;28;20516;-70
2023/03/26 08:29:26;;;;;;;6.50;3.10;;;;;;;8.12;54.79;100310.63;6196295;28;20241;-71
2023/03/26 08:32:54;;;;;;;18.13;3.90;;;;;;;8.20;53.53;100302.69;6207239;28;20231;-71
2023/03/26 08:36:15;;;;;;;6.60;3.07;;;;;;;8.24;53.15;100314.53;6231842;28;20235;-71
2023/03/26 08:39:37;;;;;;;4.30;2.13;;;;;;;8.41;53.86;100307.47;6221587;28;20303;-69
2023/03/26 08:43:17;;;;;;;4.53;1.83;;;;;;;8.46;52.21;100307.78;6217471;28;20232;-70
2023/03/26 08:47:09;;;;;;;6.37;2.60;;;;;;;8.49;52.24;100312.72;6217645;28;20228;-71
2023/03/26 08:51:03;;;;;;;10.63;3.73;;;;;;;8.61;52.46;100313.97;6219801;28;20513;-70
2023/03/26 08:54:51;;;;;;;7.77;3.57;;;;;;;8.81;51.89;100307.34;6217390;28;20307;-70
2023/03/26 08:58:51;;;;;;;5.27;2.10;;;;;;;8.74;51.55;100309.03;6210381;28;20229;-70
2023/03/26 09:02:40;;;;;;;7.93;2.20;;;;;;;9.17;50.72;100298.97;6212744;28;20685;-71
2023/03/26 09:06:46;;;;;;;1.77;1.57;;;;;;;9.05;51.86;100306.41;6229525;28;20237;-71
2023/03/26 09:10:46;;;;;;;8.60;2.57;;;;;;;8.93;50.58;100305.16;6222721;28;20228;-70
2023/03/26 09:14:45;;;;;;;9.30;2.60;;;;;;;9.06;49.76;100299.34;6223212;28;20232;-70
2023/03/26 09:18:34;;;;;;;5.73;2.20;;;;;;;9.03;48.75;100307.59;6219267;28;20224;-71
2023/03/26 09:22:30;;;;;;;5.37;1.80;;;;;;;9.51;47.05;100307.31;6221082;28;20241;-71
2023/03/26 09:26:20;;;;;;;3.77;1.80;;;;;;;9.55;46.49;100305.97;6233148;28;20232;-71
2023/03/26 09:30:11;;;;;;;14.10;2.47;;;;;;;9.96;47.63;100295.13;6224345;28;20224;-71
2023/03/26 09:33:54;;;;;;;12.07;2.63;;;;;;;10.47;45.50;100300.63;6206249;28;20248;-71
2023/03/26 09:37:25;;;;;;;3.40;1.70;;;;;;;11.05;55.79;100302.44;6211171;28;20221;-73
2023/03/26 09:40:58;;;;;;;9.67;2.73;;;;;;;11.50;52.49;100311.88;6219811;28;20232;-73
2023/03/26 09:44:44;;;;;;;4.63;2.83;;;;;;;11.54;54.56;100309.66;6215949;28;20236;-73
2023/03/26 09:48:47;;;;;;;7.33;1.90;;;;;;;10.87;44.33;100307.25;6205256;28;20233;-70
2023/03/26 09:52:20;;;;;;;4.70;1.67;;;;;;;11.41;44.23;100315.63;6175937;28;20322;-70
2023/03/26 09:56:20;;;;;;;8.87;2.47;;;;;;;10.04;44.77;100320.59;6217595;28;20255;-70
2023/03/26 10:00:03;;;;;;;5.23;2.30;;;;;;;9.74;45.54;100320.50;6207736;28;20232;-69
2023/03/26 10:03:57;;;;;;;6.47;2.27;;;;;;;10.21;44.67;100319.50;6224547;28;20228;-70
2023/03/26 10:07:38;;;;;;;5.47;1.73;;;;;;;9.76;46.54;100333.50;6216979;28;20252;-71
2023/03/26 10:11:04;;;;;;;3.40;1.83;;;;;;;10.67;44.05;100317.53;6213661;28;20323;-70
2023/03/26 10:14:34;;;;;;;3.80;1.37;;;;;;;10.92;43.80;100318.91;6187882;28;20237;-71
2023/03/26 10:18:08;;;;;;;5.20;2.37;;;;;;;11.32;41.53;100316.75;6211082;28;20232;-70
2023/03/26 10:21:41;;;;;;;4.53;1.90;;;;;;;11.38;43.11;100323.09;6216185;28;20718;-70
2023/03/26 10:25:28;;;;;;;6.10;1.30;;;;;;;11.82;56.88;100322.97;6203186;28;20244;-73
2023/03/26 10:29:10;;;;;;;3.93;1.93;;;;;;;12.82;49.60;100317.41;6208445;28;20233;-71
2023/03/26 10:32:42;;;;;;;3.20;1.70;;;;;;;11.81;42.76;100311.59;6188067;28;20232;-73
2023/03/26 10:36:24;;;;;;;5.30;1.63;;;;;;;12.05;43.47;100310.38;6217970;28;20225;-72
2023/03/26 10:40:05;;;;;;;8.90;2.20;;;;;;;13.32;39.17;100309.13;6225899;28;20252;-72
2023/03/26 10:43:54;;;;;;;3.80;2.93;;;;;;;12.86;39.43;100318.66;6204849;28;20244;-70
2023/03/26 10:47:46;;;;;;;6.43;2.40;;;;;;;12.67;39.64;100325.47;6204566;28;20279;-69
2023/03/26 10:51:26;;;;;;;8.00;2.03;;;;;;;11.77;38.35;100322.72;6220136;28;20229;-70
2023/03/26 10:54:55;;;;;;;5.50;2.33;;;;;;;12.28;40.50;100324.19;6218358;28;20484;-70
2023/03/26 10:58:21;;;;;;;4.70;1.87;;;;;;;13.39;37.56;100319.72;6202671;28;20223;-69
2023/03/26 11:01:50;;;;;;;8.63;2.60;;;;;;;18.91;28.04;100314.66;6201437;28;20228;-70
2023/03/26 11:05:27;;;;;;;2.13;1.73;;;;;;;21.73;20.62;100305.00;6215920;28;20232;-68
2023/03/26 11:08:56;;;;;;;6.60;2.28;;;;;;;20.61;22.00;100305.56;6213419;28;20244;-70
2023/03/26 11:12:24;;;;;;;3.25;1.98;;;;;;;18.68;23.53;100302.13;6218913;28;22239;-70
2023/03/26 11:15:52;;;;;;;6.40;2.35;;;;;;;20.57;21.72;100301.75;6214636;28;20224;-72
2023/03/26 11:19:22;;;;;;;2.38;1.55;;;;;;;22.65;19.34;100298.41;6211404;28;21123;-70
2023/03/26 11:22:54;;;;;;;6.25;1.90;;;;;;;24.99;18.76;100294.03;6208486;28;20492;-70
2023/03/26 11:26:22;;;;;;;5.15;2.08;;;;;;;20.41;22.18;100300.75;6221724;28;20235;-69
2023/03/26 11:29:51;;;;;;;4.28;2.47;;;;;;;18.99;25.90;100305.44;6212606;28;20235;-69
2023/03/26 11:33:18;;;;;;;3.63;2.03;;;;;;;19.38;23.24;100306.47;6211199;28;20225;-70
2023/03/26 11:36:45;;;;;;;2.95;1.95;;;;;;;18.54;25.43;100305.25;6184715;28;20256;-69
2023/03/26 11:40:14;;;;;;;5.05;1.95;;;;;;;23.00;19.84;100300.50;6213480;28;20328;-71
2023/03/26 11:43:36;;;;;;;5.10;1.90;;;;;;;25.36;17.07;100290.06;6204547;28;20235;-71
2023/03/26 11:47:03;;;;;;;7.38;1.95;;;;;;;25.60;16.15;100282.84;6211697;28;20257;-71
2023/03/26 11:50:27;;;;;;;4.10;2.05;;;;;;;26.05;15.72;100295.22;6214471;28;20264;-71
2023/03/26 11:53:49;;;;;;;6.70;2.30;;;;;;;26.61;16.32;100289.28;6209549;28;20244;-70
2023/03/26 11:57:15;;;;;;;1.55;1.15;;;;;;;28.01;14.89;100284.09;6215733;28;20259;-71
2023/03/26 12:00:39;;;;;;;4.28;1.85;;;;;;;26.43;15.08;100282.72;6213693;28;20557;-71
2023/03/26 12:04:05;;;;;;;2.50;1.48;;;;;;;27.09;13.47;100279.25;6216447;28;20252;-69
2023/03/26 12:07:31;;;;;;;6.40;2.42;;;;;;;29.40;13.23;100281.06;6214991;28;20249;-71
2023/03/26 12:11:03;;;;;;;3.55;2.20;;;;;;;29.44;13.28;100266.56;6213899;28;20228;-72
2023/03/26 12:14:26;;;;;;;2.83;1.42;;;;;;;28.73;12.67;100265.34;6209913;28;21071;-72
2023/03/26 12:17:52;;;;;;;3.67;2.42;;;;;;;28.41;13.59;100270.91;6206449;28;20236;-71
2023/03/26 12:21:15;;;;;;;6.95;3.30;;;;;;;28.36;13.58;100274.50;6214889;28;20534;-69
2023/03/26 12:24:36;;;;;;;10.77;3.30;;;;;;;27.43;13.65;100268.16;6221888;28;20884;-70
2023/03/26 12:28:01;;;;;;;6.75;1.70;;;;;;;26.72;14.62;100266.41;6217661;28;20229;-69
2023/03/26 12:31:25;;;;;;;5.30;2.33;;;;;;;28.30;14.06;100267.56;6216300;28;21067;-70
2023/03/26 12:34:47;;;;;;;4.30;1.92;;;;;;;26.79;15.01;100261.44;6218580;28;20367;-72
2023/03/26 12:38:18;;;;;;;3.40;1.75;;;;;;;28.21;14.16;100261.22;6222267;28;20247;-72
2023/03/26 12:41:40;;;;;;;8.25;1.55;;;;;;;27.13;13.79;100249.63;6221065;28;20323;-72
2023/03/26 12:45:01;;;;;;;6.05;1.88;;;;;;;28.03;13.50;100260.16;6220464;28;20436;-72
2023/03/26 12:48:25;;;;;;;4.68;3.13;;;;;;;26.52;15.19;100266.63;6218470;28;20255;-72
2023/03/26 12:51:55;;;;;;;7.72;2.55;;;;;;;27.17;14.22;100270.44;6211681;28;20367;-73
2023/03/26 12:55:30;;;;;;;8.93;2.30;;;;;;;26.54;15.15;100267.97;6222920;28;20460;-72
2023/03/26 12:59:14;;;;;;;3.65;1.50;;;;;;;27.09;14.99;100275.72;6227832;28;20232;-71
2023/03/26 13:03:01;;;;;;;4.47;1.92;;;;;;;27.17;14.60;100275.84;6224943;28;20228;-69
2023/03/26 13:06:34;;;;;;;3.13;2.45;;;;;;;26.51;14.27;100262.31;6229376;28;20252;-69
2023/03/26 13:10:15;;;;;;;10.15;2.20;;;;;;;27.34;14.51;100256.38;6231072;28;20224;-71
2023/03/26 13:13:55;;;;;;;5.43;1.83;;;;;;;27.39;14.04;100264.44;6232034;28;20228;-70
2023/03/26 13:17:23;;;;;;;4.75;2.28;;;;;;;27.18;13.36;100261.22;6228701;28;20252;-75
2023/03/26 13:20:51;;;;;;;4.55;2.75;;;;;;;27.44;15.03;100263.56;6223610;28;20567;-84
2023/03/26 13:24:23;;;;;;;6.13;1.48;;;;;;;26.52;16.77;100266.63;6208866;28;20282;-79
2023/03/26 13:27:55;;;;;;;5.93;1.92;;;;;;;28.18;14.32;100253.66;6209919;28;21527;-79
2023/03/26 13:31:22;;;;;;;5.60;2.00;;;;;;;27.76;16.02;100255.47;6219610;28;20355;-80
2023/03/26 13:34:56;;;;;;;9.23;5.30;;;;;;;25.96;18.04;100263.69;6220465;28;20236;-78
2023/03/26 13:38:26;;;;;;;8.63;2.42;;;;;;;23.65;18.86;100258.66;6221234;28;20256;-79
2023/03/26 13:42:02;;;;;;;2.63;1.13;;;;;;;25.80;18.32;100260.28;6221206;28;20327;-79
2023/03/26 13:45:42;;;;;;;4.45;2.10;;;;;;;27.38;15.10;100248.47;6225379;28;20236;-79
2023/03/26 13:49:11;;;;;;;7.47;1.83;;;;;;;27.11;14.90;100243.72;6229865;28;20255;-79
2023/03/26 13:52:37;;;;;;;3.28;1.77;;;;;;;24.97;15.83;100242.19;6221449;28;20228;-80
2023/03/26 13:56:00;;;;;;;6.03;2.28;;;;;;;22.14;20.94;100252.41;6238242;28;20311;-78
2023/03/26 13:59:28;;;;;;;7.65;1.85;;;;;;;23.34;19.89;100251.56;6221317;28;20240;-80
2023/03/26 14:02:57;;;;;;;4.53;1.40;;;;;;;24.98;17.52;100256.50;6204844;28;20236;-79
2023/03/26 14:06:30;;;;;;;2.70;1.63;;;;;;;24.86;16.21;100254.91;6213209;28;20271;-79
2023/03/26 14:09:56;;;;;;;2.80;1.35;;;;;;;22.72;20.48;100258.66;6220862;28;20653;-80
2023/03/26 14:13:22;;;;;;;3.28;1.73;;;;;;;22.40;19.92;100261.44;6209720;28;20248;-77
2023/03/26 14:16:48;;;;;;;2.85;1.92;;;;;;;22.14;19.15;100263.16;6209149;28;20259;-69
2023/03/26 14:20:55;;;;;;;4.63;1.75;;;;;;;23.27;18.63;100267.22;6201673;28;20228;-73
2023/03/26 14:24:43;;;;;;;4.05;1.73;;;;;;;20.32;21.76;100266.53;6204088;28;20229;-71
2023/03/26 14:28:21;;;;;;;2.53;1.20;;;;;;;17.78;26.09;100274.91;6196254;28;20312;-71
2023/03/26 14:31:50;;;;;;;4.30;1.95;;;;;;;19.20;24.84;100269.22;6221182;28;20243;-70
2023/03/26 14:35:24;;;;;;;2.65;2.35;;;;;;;18.58;25.04;100268.97;6229471;28;20228;-70
2023/03/26 14:39:31;;;;;;;9.40;2.72;;;;;;;17.38;26.66;100272.81;6225264;28;20231;-69
2023/03/26 14:42:58;;;;;;;5.20;2.28;;;;;;;18.30;25.51;100275.06;6228861;28;20347;-69
2023/03/26 14:46:43;;;;;;;2.33;2.17;;;;;;;18.94;25.14;100279.41;6229406;28;20229;-70
2023/03/26 14:50:36;;;;;;;9.00;3.03;;;;;;;16.23;27.37;100268.41;6229087;28;20248;-69
2023/03/26 14:54:02;;;;;;;5.78;1.63;;;;;;;15.02;30.19;100271.25;6218178;28;20241;-70
2023/03/26 14:57:52;;;;;;;2.90;2.10;;;;;;;15.45;29.80;100278.56;6221794;28;20642;-70
2023/03/26 15:01:23;;;;;;;4.80;3.07;;;;;;;15.30;30.53;100270.91;6195707;28;20602;-70
2023/03/26 15:05:10;;;;;;;3.67;2.07;;;;;;;15.40;30.10;100272.06;6219891;28;20239;-71
2023/03/26 15:09:11;;;;;;;2.80;1.77;;;;;;;15.20;30.09;100274.00;6188578;28;20603;-70
2023/03/26 15:12:49;;;;;;;4.70;2.20;;;;;;;14.37;30.71;100263.25;6177415;28;20325;-71
2023/03/26 15:16:41;;;;;;;6.53;1.93;;;;;;;14.50;31.23;100281.00;6217502;28;20461;-70
2023/03/26 15:20:44;;;;;;;1.93;1.70;;;;;;;14.23;34.25;100272.22;6224220;28;20488;-71
2023/03/26 15:24:48;;;;;;;5.33;2.07;;;;;;;14.18;33.18;100272.06;6192329;28;20669;-72
2023/03/26 15:28:32;;;;;;;4.10;1.80;;;;;;;14.72;35.05;100281.56;6220165;28;20545;-72
2023/03/26 15:32:16;;;;;;;6.27;2.30;;;;;;;15.11;33.81;100277.97;6221889;28;20236;-72
2023/03/26 15:35:59;;;;;;;5.77;2.87;;;;;;;15.30;31.21;100276.22;6209991;28;20224;-70
2023/03/26 15:39:53;;;;;;;3.37;1.97;;;;;;;14.75;31.63;100290.97;6222220;28;20268;-71
2023/03/26 15:43:17;;;;;;;4.40;3.13;;;;;;;14.72;32.37;100286.88;6224292;28;20642;-70
2023/03/26 15:46:56;;;;;;;6.33;5.77;;;;;;;14.41;32.78;100287.59;6223077;28;20234;-71
2023/03/26 15:50:31;;;;;;;6.80;3.70;;;;;;;14.60;31.12;100292.03;6223028;28;20224;-72
2023/03/26 15:53:57;;;;;;;2.87;1.97;;;;;;;13.96;32.65;100291.88;6218352;28;20535;-72
2023/03/26 15:57:27;;;;;;;6.23;2.43;;;;;;;13.52;33.02;100295.09;6218307;28;20303;-71
2023/03/26 16:00:56;;;;;;;3.57;1.73;;;;;;;14.12;32.78;100288.78;6214088;28;20225;-71
2023/03/26 16:04:28;;;;;;;6.47;1.90;;;;;;;14.39;31.03;100294.91;6217531;28;20232;-70
2023/03/26 16:08:01;;;;;;;4.47;2.07;;;;;;;14.59;30.93;100297.53;6213882;28;20236;-70
2023/03/26 16:11:49;;;;;;;4.17;2.90;;;;;;;14.73;30.59;100306.28;6217273;28;20562;-69
2023/03/26 16:15:30;;;;;;;6.17;2.23;;;;;;;14.27;30.43;100291.22;6213647;28;20328;-69
2023/03/26 16:18:58;;;;;;;3.33;1.43;;;;;;;13.56;32.31;100304.25;6204177;28;20237;-70
2023/03/26 16:22:42;;;;;;;6.17;2.50;;;;;;;13.95;33.03;100304.31;6214233;28;20229;-71
2023/03/26 16:26:18;;;;;;;4.53;2.73;;;;;;;14.19;32.53;100310.84;6218122;28;20336;-69
2023/03/26 16:30:26;;;;;;;4.87;1.93;;;;;;;13.70;33.26;100313.88;6217475;28;20247;-69
2023/03/26 16:33:50;;;;;;;3.90;2.60;;;;;;;14.31;35.60;100311.84;6214176;28;20224;-70
2023/03/26 16:37:38;;;;;;;3.03;1.90;;;;;;;13.84;33.31;100320.81;6220881;28;20248;-69